KMMT/MMT METAR and TAF weather

Enter ICAO airport designator
Station Type Date Time Source
KMMT METAR 2019/06/26 19:56 UTC NOAA

KMMT 261956Z 33006KT 10SM OVC220 30/16 A3013 RMK AO2A SLP204 T03040164 $


Station Type Date Time Source
KMMT Decoded METAR 2019/06/26 19:56 UTC NOAA

McEntire Air National Guard Weather Facility Base, SC, United States (KMMT) 33-55N 080-48W
Jun 26, 2019 - 03:56 PM EDT / 2019.06.26 1956 UTC
Wind: from the NNW (330 degrees) at 7 MPH (6 KT):0
Visibility: 10 mile(s):0
Sky conditions: overcast
Temperature: 86.7 F (30.4 C)
Dew Point: 61.5 F (16.4 C)
Relative Humidity: 42%
Pressure (altimeter): 30.13 in. Hg (1020 hPa)
ob: KMMT 261956Z 33006KT 10SM OVC220 30/16 A3013 RMK AO2A SLP204 T03040164
cycle: 20

Station Type Date Time Source
KMMT TAF 2019/06/26 15:13 UTC NOAA

TAF KMMT 261505Z 2615/2721 02009KT 9999 FEW030 SCT180 BKN230 QNH3005INS
BECMG 2623/2624 05006KT 9999 BKN220 QNH3005INS TX34/2620Z TN20/2710Z

Example: see airport list